sensor_id;sensor_type;location;lat;lon;timestamp;temperature;humidity
7934;DHT22;4012;48.896;9.192;2023-04-08T00:00:15;8.90;99.90
7934;DHT22;4012;48.896;9.192;2023-04-08T00:02:41;8.80;99.90
7934;DHT22;4012;48.896;9.192;2023-04-08T00:05:07;8.90;99.90
7934;DHT22;4012;48.896;9.192;2023-04-08T00:07:33;8.90;99.90
7934;DHT22;4012;48.896;9.192;2023-04-08T00:09:59;8.90;99.90
7934;DHT22;4012;48.896;9.192;2023-04-08T00:12:25;8.90;99.90
7934;DHT22;4012;48.896;9.192;2023-04-08T00:14:51;8.90;99.90
7934;DHT22;4012;48.896;9.192;2023-04-08T00:17:16;8.80;99.90
7934;DHT22;4012;48.896;9.192;2023-04-08T00:19:42;8.80;99.90
7934;DHT22;4012;48.896;9.192;2023-04-08T00:22:09;8.80;99.90
7934;DHT22;4012;48.896;9.192;2023-04-08T00:24:34;8.80;99.90
7934;DHT22;4012;48.896;9.192;2023-04-08T00:27:00;8.80;99.90
7934;DHT22;4012;48.896;9.192;2023-04-08T00:29:27;8.70;99.90
7934;DHT22;4012;48.896;9.192;2023-04-08T00:31:53;8.70;99.90
7934;DHT22;4012;48.896;9.192;2023-04-08T00:34:19;8.70;99.90
7934;DHT22;4012;48.896;9.192;2023-04-08T00:36:44;8.70;99.90
7934;DHT22;4012;48.896;9.192;2023-04-08T00:39:13;8.70;99.90
7934;DHT22;4012;48.896;9.192;2023-04-08T00:41:38;8.70;99.90
7934;DHT22;4012;48.896;9.192;2023-04-08T00:44:04;8.70;99.90
7934;DHT22;4012;48.896;9.192;2023-04-08T00:46:35;8.70;99.90
7934;DHT22;4012;48.896;9.192;2023-04-08T00:49:00;8.70;99.90
7934;DHT22;4012;48.896;9.192;2023-04-08T00:51:28;8.70;99.90
7934;DHT22;4012;48.896;9.192;2023-04-08T00:53:54;8.60;99.90
7934;DHT22;4012;48.896;9.192;2023-04-08T00:56:21;8.60;99.90
7934;DHT22;4012;48.896;9.192;2023-04-08T00:58:47;8.60;99.90
7934;DHT22;4012;48.896;9.192;2023-04-08T01:01:54;8.60;99.90
7934;DHT22;4012;48.896;9.192;2023-04-08T01:07:49;8.50;99.90
7934;DHT22;4012;48.896;9.192;2023-04-08T01:10:34;8.50;99.90
7934;DHT22;4012;48.896;9.192;2023-04-08T01:13:07;8.60;99.90
7934;DHT22;4012;48.896;9.192;2023-04-08T01:15:36;8.50;99.90
7934;DHT22;4012;48.896;9.192;2023-04-08T01:18:06;8.60;99.90
7934;DHT22;4012;48.896;9.192;2023-04-08T01:20:33;8.50;99.90
7934;DHT22;4012;48.896;9.192;2023-04-08T01:23:39;8.50;99.90
7934;DHT22;4012;48.896;9.192;2023-04-08T01:26:10;8.40;99.90
7934;DHT22;4012;48.896;9.192;2023-04-08T01:28:36;8.40;99.90
7934;DHT22;4012;48.896;9.192;2023-04-08T01:31:02;8.30;99.90
7934;DHT22;4012;48.896;9.192;2023-04-08T01:33:28;8.40;99.90
7934;DHT22;4012;48.896;9.192;2023-04-08T01:35:55;8.40;99.90
7934;DHT22;4012;48.896;9.192;2023-04-08T01:38:23;8.40;99.90
7934;DHT22;4012;48.896;9.192;2023-04-08T01:40:50;8.40;99.90
7934;DHT22;4012;48.896;9.192;2023-04-08T01:43:18;8.40;99.90
7934;DHT22;4012;48.896;9.192;2023-04-08T01:45:44;8.40;99.90
7934;DHT22;4012;48.896;9.192;2023-04-08T01:48:12;8.40;99.90
7934;DHT22;4012;48.896;9.192;2023-04-08T01:50:40;8.40;99.90
7934;DHT22;4012;48.896;9.192;2023-04-08T01:53:08;8.30;99.90
7934;DHT22;4012;48.896;9.192;2023-04-08T01:55:34;8.30;99.90
7934;DHT22;4012;48.896;9.192;2023-04-08T01:58:00;8.20;99.90
7934;DHT22;4012;48.896;9.192;2023-04-08T02:00:29;8.30;99.90
7934;DHT22;4012;48.896;9.192;2023-04-08T02:02:56;8.20;99.90
7934;DHT22;4012;48.896;9.192;2023-04-08T02:05:22;8.20;99.90
7934;DHT22;4012;48.896;9.192;2023-04-08T02:07:48;8.30;99.90
7934;DHT22;4012;48.896;9.192;2023-04-08T02:10:14;8.30;99.90
7934;DHT22;4012;48.896;9.192;2023-04-08T02:12:41;8.30;99.90
7934;DHT22;4012;48.896;9.192;2023-04-08T02:15:07;8.30;99.90
7934;DHT22;4012;48.896;9.192;2023-04-08T02:20:06;8.30;99.90
7934;DHT22;4012;48.896;9.192;2023-04-08T02:25:20;8.30;99.90
7934;DHT22;4012;48.896;9.192;2023-04-08T02:27:48;8.30;99.90
7934;DHT22;4012;48.896;9.192;2023-04-08T02:30:15;8.30;99.90
7934;DHT22;4012;48.896;9.192;2023-04-08T02:32:41;8.30;99.90
7934;DHT22;4012;48.896;9.192;2023-04-08T02:35:08;8.30;99.90
7934;DHT22;4012;48.896;9.192;2023-04-08T02:37:35;8.30;99.90
7934;DHT22;4012;48.896;9.192;2023-04-08T02:40:00;8.30;99.90
7934;DHT22;4012;48.896;9.192;2023-04-08T02:42:26;8.30;99.90
7934;DHT22;4012;48.896;9.192;2023-04-08T02:44:52;8.20;99.90
7934;DHT22;4012;48.896;9.192;2023-04-08T02:47:17;8.20;99.90
7934;DHT22;4012;48.896;9.192;2023-04-08T02:49:43;8.20;99.90
7934;DHT22;4012;48.896;9.192;2023-04-08T02:52:09;8.20;99.90
7934;DHT22;4012;48.896;9.192;2023-04-08T02:54:34;8.20;99.90
7934;DHT22;4012;48.896;9.192;2023-04-08T02:57:00;8.20;99.90
7934;DHT22;4012;48.896;9.192;2023-04-08T02:59:26;8.10;99.90
7934;DHT22;4012;48.896;9.192;2023-04-08T03:01:51;8.10;99.90
7934;DHT22;4012;48.896;9.192;2023-04-08T03:04:17;8.10;99.90
7934;DHT22;4012;48.896;9.192;2023-04-08T03:06:43;8.10;99.90
7934;DHT22;4012;48.896;9.192;2023-04-08T03:09:08;8.00;99.90
7934;DHT22;4012;48.896;9.192;2023-04-08T03:11:34;8.10;99.90
7934;DHT22;4012;48.896;9.192;2023-04-08T03:13:59;8.10;99.90
7934;DHT22;4012;48.896;9.192;2023-04-08T03:16:25;8.10;99.90
7934;DHT22;4012;48.896;9.192;2023-04-08T03:18:51;8.10;99.90
7934;DHT22;4012;48.896;9.192;2023-04-08T03:21:17;8.00;99.90
7934;DHT22;4012;48.896;9.192;2023-04-08T03:23:43;8.00;99.90
7934;DHT22;4012;48.896;9.192;2023-04-08T03:26:08;8.10;99.90
7934;DHT22;4012;48.896;9.192;2023-04-08T03:28:34;8.10;99.90
7934;DHT22;4012;48.896;9.192;2023-04-08T03:31:00;8.00;99.90
7934;DHT22;4012;48.896;9.192;2023-04-08T03:33:26;8.00;99.90
7934;DHT22;4012;48.896;9.192;2023-04-08T03:35:53;8.00;99.90
7934;DHT22;4012;48.896;9.192;2023-04-08T03:38:19;8.00;99.90
7934;DHT22;4012;48.896;9.192;2023-04-08T03:40:45;8.00;99.90
7934;DHT22;4012;48.896;9.192;2023-04-08T03:43:10;8.00;99.90
7934;DHT22;4012;48.896;9.192;2023-04-08T03:45:37;8.00;99.90
7934;DHT22;4012;48.896;9.192;2023-04-08T03:48:03;8.00;99.90
7934;DHT22;4012;48.896;9.192;2023-04-08T03:50:29;8.00;99.90
7934;DHT22;4012;48.896;9.192;2023-04-08T03:52:54;8.00;99.90
7934;DHT22;4012;48.896;9.192;2023-04-08T03:55:20;7.90;99.90
7934;DHT22;4012;48.896;9.192;2023-04-08T03:57:45;7.90;99.90
7934;DHT22;4012;48.896;9.192;2023-04-08T04:00:11;8.00;99.90
7934;DHT22;4012;48.896;9.192;2023-04-08T04:02:37;7.90;99.90
7934;DHT22;4012;48.896;9.192;2023-04-08T04:05:03;7.90;99.90
7934;DHT22;4012;48.896;9.192;2023-04-08T04:07:29;7.90;99.90
7934;DHT22;4012;48.896;9.192;2023-04-08T04:09:54;7.80;99.90
7934;DHT22;4012;48.896;9.192;2023-04-08T04:12:21;7.80;99.90
7934;DHT22;4012;48.896;9.192;2023-04-08T04:14:47;7.70;99.90
7934;DHT22;4012;48.896;9.192;2023-04-08T04:17:13;7.60;99.90
7934;DHT22;4012;48.896;9.192;2023-04-08T04:19:38;7.60;99.90
7934;DHT22;4012;48.896;9.192;2023-04-08T04:22:04;7.50;99.90
7934;DHT22;4012;48.896;9.192;2023-04-08T04:24:29;7.50;99.90
7934;DHT22;4012;48.896;9.192;2023-04-08T04:26:55;7.40;99.90
7934;DHT22;4012;48.896;9.192;2023-04-08T04:29:20;7.40;99.90
7934;DHT22;4012;48.896;9.192;2023-04-08T04:31:46;7.40;99.90
7934;DHT22;4012;48.896;9.192;2023-04-08T04:34:12;7.30;99.90
7934;DHT22;4012;48.896;9.192;2023-04-08T04:36:37;7.30;99.90
7934;DHT22;4012;48.896;9.192;2023-04-08T04:39:03;7.30;99.90
7934;DHT22;4012;48.896;9.192;2023-04-08T04:41:28;7.30;99.90
7934;DHT22;4012;48.896;9.192;2023-04-08T04:43:54;7.30;99.90
7934;DHT22;4012;48.896;9.192;2023-04-08T04:46:19;7.30;99.90
7934;DHT22;4012;48.896;9.192;2023-04-08T04:48:45;7.30;99.90
7934;DHT22;4012;48.896;9.192;2023-04-08T04:51:11;7.20;99.90
7934;DHT22;4012;48.896;9.192;2023-04-08T04:53:36;7.20;99.90
7934;DHT22;4012;48.896;9.192;2023-04-08T04:56:02;7.20;99.90
7934;DHT22;4012;48.896;9.192;2023-04-08T04:58:28;7.20;99.90
7934;DHT22;4012;48.896;9.192;2023-04-08T05:00:55;7.20;99.90
7934;DHT22;4012;48.896;9.192;2023-04-08T05:03:20;7.20;99.90
7934;DHT22;4012;48.896;9.192;2023-04-08T05:05:53;7.20;99.90
7934;DHT22;4012;48.896;9.192;2023-04-08T05:08:19;7.20;99.90
7934;DHT22;4012;48.896;9.192;2023-04-08T05:10:45;7.10;99.90
7934;DHT22;4012;48.896;9.192;2023-04-08T05:13:11;7.20;99.90
7934;DHT22;4012;48.896;9.192;2023-04-08T05:15:37;7.20;99.90
7934;DHT22;4012;48.896;9.192;2023-04-08T05:18:02;7.20;99.90
7934;DHT22;4012;48.896;9.192;2023-04-08T05:20:28;7.20;99.90
7934;DHT22;4012;48.896;9.192;2023-04-08T05:22:54;7.30;99.90
7934;DHT22;4012;48.896;9.192;2023-04-08T05:25:20;7.30;99.90
7934;DHT22;4012;48.896;9.192;2023-04-08T05:27:45;7.30;99.90
7934;DHT22;4012;48.896;9.192;2023-04-08T05:30:11;7.40;99.90
7934;DHT22;4012;48.896;9.192;2023-04-08T05:32:37;7.40;99.90
7934;DHT22;4012;48.896;9.192;2023-04-08T05:35:03;7.40;99.90
7934;DHT22;4012;48.896;9.192;2023-04-08T05:37:29;7.50;99.90
7934;DHT22;4012;48.896;9.192;2023-04-08T05:39:54;7.60;99.90
7934;DHT22;4012;48.896;9.192;2023-04-08T05:42:20;7.60;99.90
7934;DHT22;4012;48.896;9.192;2023-04-08T05:44:46;7.60;99.90
7934;DHT22;4012;48.896;9.192;2023-04-08T05:47:11;7.70;99.90
7934;DHT22;4012;48.896;9.192;2023-04-08T05:49:37;7.80;99.90
7934;DHT22;4012;48.896;9.192;2023-04-08T05:52:03;7.80;99.90
7934;DHT22;4012;48.896;9.192;2023-04-08T05:54:28;7.80;99.90
7934;DHT22;4012;48.896;9.192;2023-04-08T05:56:54;7.80;99.90
7934;DHT22;4012;48.896;9.192;2023-04-08T05:59:20;7.80;99.90
7934;DHT22;4012;48.896;9.192;2023-04-08T06:01:45;7.80;99.90
7934;DHT22;4012;48.896;9.192;2023-04-08T06:04:11;7.80;99.90
7934;DHT22;4012;48.896;9.192;2023-04-08T06:06:37;7.80;99.90
7934;DHT22;4012;48.896;9.192;2023-04-08T06:09:05;7.80;99.90
7934;DHT22;4012;48.896;9.192;2023-04-08T06:11:31;7.90;99.90
7934;DHT22;4012;48.896;9.192;2023-04-08T06:13:57;7.90;99.90
7934;DHT22;4012;48.896;9.192;2023-04-08T06:16:22;7.90;99.90
7934;DHT22;4012;48.896;9.192;2023-04-08T06:18:48;7.90;99.90
7934;DHT22;4012;48.896;9.192;2023-04-08T06:21:13;8.00;99.90
7934;DHT22;4012;48.896;9.192;2023-04-08T06:23:39;7.90;99.90
7934;DHT22;4012;48.896;9.192;2023-04-08T06:26:05;8.00;99.90
7934;DHT22;4012;48.896;9.192;2023-04-08T06:28:31;8.10;99.90
7934;DHT22;4012;48.896;9.192;2023-04-08T06:30:57;8.20;99.90
7934;DHT22;4012;48.896;9.192;2023-04-08T06:33:23;8.10;99.90
7934;DHT22;4012;48.896;9.192;2023-04-08T06:35:48;8.10;99.90
7934;DHT22;4012;48.896;9.192;2023-04-08T06:38:14;8.20;99.90
7934;DHT22;4012;48.896;9.192;2023-04-08T06:40:40;8.30;99.90
7934;DHT22;4012;48.896;9.192;2023-04-08T06:43:05;8.40;99.90
7934;DHT22;4012;48.896;9.192;2023-04-08T06:45:34;8.40;99.90
7934;DHT22;4012;48.896;9.192;2023-04-08T06:48:00;8.40;99.90
7934;DHT22;4012;48.896;9.192;2023-04-08T06:50:26;8.50;99.90
7934;DHT22;4012;48.896;9.192;2023-04-08T06:52:52;8.70;99.90
7934;DHT22;4012;48.896;9.192;2023-04-08T06:55:17;8.70;99.90
7934;DHT22;4012;48.896;9.192;2023-04-08T06:57:43;8.70;99.90
7934;DHT22;4012;48.896;9.192;2023-04-08T07:00:09;8.70;99.90
7934;DHT22;4012;48.896;9.192;2023-04-08T07:02:34;8.90;99.90
7934;DHT22;4012;48.896;9.192;2023-04-08T07:05:00;9.10;99.90
7934;DHT22;4012;48.896;9.192;2023-04-08T07:07:25;9.40;99.90
7934;DHT22;4012;48.896;9.192;2023-04-08T07:09:51;9.40;99.90
7934;DHT22;4012;48.896;9.192;2023-04-08T07:12:17;9.40;99.90
7934;DHT22;4012;48.896;9.192;2023-04-08T07:14:42;9.30;99.90
7934;DHT22;4012;48.896;9.192;2023-04-08T07:17:08;9.40;99.90
7934;DHT22;4012;48.896;9.192;2023-04-08T07:19:34;9.70;99.90
7934;DHT22;4012;48.896;9.192;2023-04-08T07:22:00;9.90;99.90
7934;DHT22;4012;48.896;9.192;2023-04-08T07:24:26;10.20;99.90
7934;DHT22;4012;48.896;9.192;2023-04-08T07:26:51;10.70;99.90
7934;DHT22;4012;48.896;9.192;2023-04-08T07:29:17;10.80;99.90
7934;DHT22;4012;48.896;9.192;2023-04-08T07:31:43;10.40;99.90
7934;DHT22;4012;48.896;9.192;2023-04-08T07:34:09;10.10;99.90
7934;DHT22;4012;48.896;9.192;2023-04-08T07:36:35;10.20;99.90
7934;DHT22;4012;48.896;9.192;2023-04-08T07:39:00;10.00;99.90
7934;DHT22;4012;48.896;9.192;2023-04-08T07:41:27;10.10;99.90
7934;DHT22;4012;48.896;9.192;2023-04-08T07:43:52;10.10;99.90
7934;DHT22;4012;48.896;9.192;2023-04-08T07:46:18;10.30;99.90
7934;DHT22;4012;48.896;9.192;2023-04-08T07:48:44;10.40;99.90
7934;DHT22;4012;48.896;9.192;2023-04-08T07:51:10;10.30;99.90
7934;DHT22;4012;48.896;9.192;2023-04-08T07:53:35;10.20;99.90
7934;DHT22;4012;48.896;9.192;2023-04-08T07:56:01;9.90;99.90
7934;DHT22;4012;48.896;9.192;2023-04-08T07:58:29;9.80;99.90
7934;DHT22;4012;48.896;9.192;2023-04-08T08:00:56;9.50;99.90
7934;DHT22;4012;48.896;9.192;2023-04-08T08:03:22;9.70;99.90
7934;DHT22;4012;48.896;9.192;2023-04-08T08:05:48;9.80;99.90
7934;DHT22;4012;48.896;9.192;2023-04-08T08:08:14;10.00;99.90
7934;DHT22;4012;48.896;9.192;2023-04-08T08:10:39;10.10;99.90
7934;DHT22;4012;48.896;9.192;2023-04-08T08:13:06;10.10;99.90
7934;DHT22;4012;48.896;9.192;2023-04-08T08:15:32;10.50;99.90
7934;DHT22;4012;48.896;9.192;2023-04-08T08:17:58;10.70;99.90
7934;DHT22;4012;48.896;9.192;2023-04-08T08:20:23;10.70;99.90
7934;DHT22;4012;48.896;9.192;2023-04-08T08:22:49;10.80;99.90
7934;DHT22;4012;48.896;9.192;2023-04-08T08:25:15;11.20;99.90
7934;DHT22;4012;48.896;9.192;2023-04-08T08:27:42;11.80;99.90
7934;DHT22;4012;48.896;9.192;2023-04-08T08:30:08;12.40;99.90
7934;DHT22;4012;48.896;9.192;2023-04-08T08:32:34;13.20;99.90
7934;DHT22;4012;48.896;9.192;2023-04-08T08:35:00;13.70;99.90
7934;DHT22;4012;48.896;9.192;2023-04-08T08:37:26;14.00;99.90
7934;DHT22;4012;48.896;9.192;2023-04-08T08:39:51;14.30;99.90
7934;DHT22;4012;48.896;9.192;2023-04-08T08:42:20;14.70;99.90
7934;DHT22;4012;48.896;9.192;2023-04-08T08:44:47;15.40;99.90
7934;DHT22;4012;48.896;9.192;2023-04-08T08:47:13;15.20;99.90
7934;DHT22;4012;48.896;9.192;2023-04-08T08:49:38;14.60;99.90
7934;DHT22;4012;48.896;9.192;2023-04-08T08:52:04;15.10;99.90
7934;DHT22;4012;48.896;9.192;2023-04-08T08:54:31;15.00;99.90
7934;DHT22;4012;48.896;9.192;2023-04-08T08:56:56;15.30;99.90
7934;DHT22;4012;48.896;9.192;2023-04-08T08:59:22;15.10;99.90
7934;DHT22;4012;48.896;9.192;2023-04-08T09:01:48;14.20;99.90
7934;DHT22;4012;48.896;9.192;2023-04-08T09:06:41;14.40;99.90
7934;DHT22;4012;48.896;9.192;2023-04-08T09:09:07;14.80;99.90
7934;DHT22;4012;48.896;9.192;2023-04-08T09:11:40;14.90;99.90
7934;DHT22;4012;48.896;9.192;2023-04-08T09:14:24;14.40;99.90
7934;DHT22;4012;48.896;9.192;2023-04-08T09:16:51;15.10;99.90
7934;DHT22;4012;48.896;9.192;2023-04-08T09:19:17;15.10;99.90
7934;DHT22;4012;48.896;9.192;2023-04-08T09:21:43;14.70;99.90
7934;DHT22;4012;48.896;9.192;2023-04-08T09:24:26;14.20;99.90
7934;DHT22;4012;48.896;9.192;2023-04-08T09:26:51;14.10;99.90
7934;DHT22;4012;48.896;9.192;2023-04-08T09:29:17;14.60;99.90
7934;DHT22;4012;48.896;9.192;2023-04-08T09:31:43;14.20;99.90
7934;DHT22;4012;48.896;9.192;2023-04-08T09:34:10;14.60;99.90
7934;DHT22;4012;48.896;9.192;2023-04-08T09:36:37;13.90;99.90
7934;DHT22;4012;48.896;9.192;2023-04-08T09:39:02;14.10;99.90
7934;DHT22;4012;48.896;9.192;2023-04-08T09:41:32;13.10;99.90
7934;DHT22;4012;48.896;9.192;2023-04-08T09:43:59;13.20;99.90
7934;DHT22;4012;48.896;9.192;2023-04-08T09:46:28;13.80;99.90
7934;DHT22;4012;48.896;9.192;2023-04-08T09:49:09;14.70;99.90
7934;DHT22;4012;48.896;9.192;2023-04-08T09:54:20;14.10;99.90
7934;DHT22;4012;48.896;9.192;2023-04-08T09:56:53;13.90;99.90
7934;DHT22;4012;48.896;9.192;2023-04-08T09:59:24;13.40;99.90
7934;DHT22;4012;48.896;9.192;2023-04-08T10:01:53;14.60;99.90
7934;DHT22;4012;48.896;9.192;2023-04-08T10:04:22;15.10;99.90
7934;DHT22;4012;48.896;9.192;2023-04-08T10:06:53;14.90;99.90
7934;DHT22;4012;48.896;9.192;2023-04-08T10:09:22;13.30;99.90
7934;DHT22;4012;48.896;9.192;2023-04-08T10:11:48;13.50;99.90
7934;DHT22;4012;48.896;9.192;2023-04-08T10:14:14;13.40;99.90
7934;DHT22;4012;48.896;9.192;2023-04-08T10:16:39;12.40;99.90
7934;DHT22;4012;48.896;9.192;2023-04-08T10:19:36;12.00;99.90
7934;DHT22;4012;48.896;9.192;2023-04-08T10:25:28;12.50;99.90
7934;DHT22;4012;48.896;9.192;2023-04-08T10:27:54;12.50;99.90
7934;DHT22;4012;48.896;9.192;2023-04-08T10:32:55;12.30;99.90
7934;DHT22;4012;48.896;9.192;2023-04-08T10:35:33;12.30;99.90
7934;DHT22;4012;48.896;9.192;2023-04-08T10:37:59;12.40;99.90
7934;DHT22;4012;48.896;9.192;2023-04-08T10:40:25;12.50;99.90
7934;DHT22;4012;48.896;9.192;2023-04-08T10:42:57;12.40;99.90
7934;DHT22;4012;48.896;9.192;2023-04-08T10:45:23;12.00;99.90
7934;DHT22;4012;48.896;9.192;2023-04-08T10:47:49;11.80;99.90
7934;DHT22;4012;48.896;9.192;2023-04-08T10:50:16;11.80;99.90
7934;DHT22;4012;48.896;9.192;2023-04-08T10:52:50;11.90;99.90
7934;DHT22;4012;48.896;9.192;2023-04-08T10:55:22;12.10;99.90
7934;DHT22;4012;48.896;9.192;2023-04-08T10:57:49;11.90;99.90
7934;DHT22;4012;48.896;9.192;2023-04-08T11:00:31;11.70;99.90
7934;DHT22;4012;48.896;9.192;2023-04-08T11:03:03;11.70;99.90
7934;DHT22;4012;48.896;9.192;2023-04-08T11:05:30;11.90;99.90
7934;DHT22;4012;48.896;9.192;2023-04-08T11:08:00;11.60;99.90
7934;DHT22;4012;48.896;9.192;2023-04-08T11:10:26;11.50;99.90
7934;DHT22;4012;48.896;9.192;2023-04-08T11:12:54;11.60;99.90
7934;DHT22;4012;48.896;9.192;2023-04-08T11:15:21;11.60;99.90
7934;DHT22;4012;48.896;9.192;2023-04-08T11:17:47;11.50;99.90
7934;DHT22;4012;48.896;9.192;2023-04-08T11:20:13;11.80;99.90
7934;DHT22;4012;48.896;9.192;2023-04-08T11:22:39;12.10;99.90
7934;DHT22;4012;48.896;9.192;2023-04-08T11:25:08;12.00;99.90
7934;DHT22;4012;48.896;9.192;2023-04-08T11:27:35;12.10;99.90
7934;DHT22;4012;48.896;9.192;2023-04-08T11:30:01;12.00;99.90
7934;DHT22;4012;48.896;9.192;2023-04-08T11:32:27;12.10;99.90
7934;DHT22;4012;48.896;9.192;2023-04-08T11:34:58;12.10;99.90
7934;DHT22;4012;48.896;9.192;2023-04-08T11:37:25;12.10;99.90
7934;DHT22;4012;48.896;9.192;2023-04-08T11:39:50;12.20;99.90
7934;DHT22;4012;48.896;9.192;2023-04-08T11:42:29;12.00;99.90
7934;DHT22;4012;48.896;9.192;2023-04-08T11:44:55;11.80;99.90
7934;DHT22;4012;48.896;9.192;2023-04-08T11:47:21;12.00;99.90
7934;DHT22;4012;48.896;9.192;2023-04-08T11:49:46;11.80;99.90
7934;DHT22;4012;48.896;9.192;2023-04-08T11:52:12;12.00;99.90
7934;DHT22;4012;48.896;9.192;2023-04-08T11:54:42;12.30;99.90
7934;DHT22;4012;48.896;9.192;2023-04-08T11:57:08;12.00;99.90
7934;DHT22;4012;48.896;9.192;2023-04-08T11:59:36;11.70;99.90
7934;DHT22;4012;48.896;9.192;2023-04-08T12:02:02;11.70;99.90
7934;DHT22;4012;48.896;9.192;2023-04-08T12:04:28;11.60;99.90
7934;DHT22;4012;48.896;9.192;2023-04-08T12:06:55;11.80;99.90
7934;DHT22;4012;48.896;9.192;2023-04-08T12:09:21;11.70;99.90
7934;DHT22;4012;48.896;9.192;2023-04-08T12:11:47;11.80;99.90
7934;DHT22;4012;48.896;9.192;2023-04-08T12:14:13;11.90;99.90
7934;DHT22;4012;48.896;9.192;2023-04-08T12:16:38;12.10;99.90
7934;DHT22;4012;48.896;9.192;2023-04-08T12:19:04;12.00;99.90
7934;DHT22;4012;48.896;9.192;2023-04-08T12:21:30;12.10;99.90
7934;DHT22;4012;48.896;9.192;2023-04-08T12:23:56;12.10;99.90
7934;DHT22;4012;48.896;9.192;2023-04-08T12:26:22;12.10;99.90
7934;DHT22;4012;48.896;9.192;2023-04-08T12:28:48;12.10;99.90
7934;DHT22;4012;48.896;9.192;2023-04-08T12:31:14;12.10;99.90
7934;DHT22;4012;48.896;9.192;2023-04-08T12:33:40;12.10;99.90
7934;DHT22;4012;48.896;9.192;2023-04-08T12:36:05;12.20;99.90
7934;DHT22;4012;48.896;9.192;2023-04-08T12:38:31;12.20;99.90
7934;DHT22;4012;48.896;9.192;2023-04-08T12:40:58;12.40;99.90
7934;DHT22;4012;48.896;9.192;2023-04-08T12:43:23;12.50;99.90
7934;DHT22;4012;48.896;9.192;2023-04-08T12:45:50;12.50;99.90
7934;DHT22;4012;48.896;9.192;2023-04-08T12:48:16;12.70;99.90
7934;DHT22;4012;48.896;9.192;2023-04-08T12:50:41;13.00;99.90
7934;DHT22;4012;48.896;9.192;2023-04-08T12:53:07;13.30;99.90
7934;DHT22;4012;48.896;9.192;2023-04-08T12:55:33;13.30;99.90
7934;DHT22;4012;48.896;9.192;2023-04-08T12:57:58;13.40;99.90
7934;DHT22;4012;48.896;9.192;2023-04-08T13:00:24;12.90;99.90
7934;DHT22;4012;48.896;9.192;2023-04-08T13:02:51;12.70;99.90
7934;DHT22;4012;48.896;9.192;2023-04-08T13:05:17;12.30;99.90
7934;DHT22;4012;48.896;9.192;2023-04-08T13:07:42;12.60;99.90
7934;DHT22;4012;48.896;9.192;2023-04-08T13:10:08;12.40;99.90
7934;DHT22;4012;48.896;9.192;2023-04-08T13:12:34;12.40;99.90
7934;DHT22;4012;48.896;9.192;2023-04-08T13:14:59;12.50;99.90
7934;DHT22;4012;48.896;9.192;2023-04-08T13:17:26;12.60;99.90
7934;DHT22;4012;48.896;9.192;2023-04-08T13:19:52;12.60;99.90
7934;DHT22;4012;48.896;9.192;2023-04-08T13:22:17;12.50;99.90
7934;DHT22;4012;48.896;9.192;2023-04-08T13:24:43;12.50;99.90
7934;DHT22;4012;48.896;9.192;2023-04-08T13:27:09;12.40;99.90
7934;DHT22;4012;48.896;9.192;2023-04-08T13:29:34;12.40;99.90
7934;DHT22;4012;48.896;9.192;2023-04-08T13:32:00;12.30;99.90
7934;DHT22;4012;48.896;9.192;2023-04-08T13:34:26;12.40;99.90
7934;DHT22;4012;48.896;9.192;2023-04-08T13:36:51;12.40;99.90
7934;DHT22;4012;48.896;9.192;2023-04-08T13:39:20;12.50;99.90
7934;DHT22;4012;48.896;9.192;2023-04-08T13:41:49;12.60;99.90
7934;DHT22;4012;48.896;9.192;2023-04-08T13:44:15;12.40;99.90
7934;DHT22;4012;48.896;9.192;2023-04-08T13:46:41;12.60;99.90
7934;DHT22;4012;48.896;9.192;2023-04-08T13:49:07;12.50;99.90
7934;DHT22;4012;48.896;9.192;2023-04-08T13:51:33;12.60;99.90
7934;DHT22;4012;48.896;9.192;2023-04-08T13:53:59;12.60;99.90
7934;DHT22;4012;48.896;9.192;2023-04-08T13:56:25;12.70;99.90
7934;DHT22;4012;48.896;9.192;2023-04-08T13:58:51;12.80;99.90
7934;DHT22;4012;48.896;9.192;2023-04-08T14:01:16;12.80;99.90
7934;DHT22;4012;48.896;9.192;2023-04-08T14:03:42;13.10;99.90
7934;DHT22;4012;48.896;9.192;2023-04-08T14:06:08;13.30;99.90
7934;DHT22;4012;48.896;9.192;2023-04-08T14:08:33;13.40;99.90
7934;DHT22;4012;48.896;9.192;2023-04-08T14:10:59;13.80;99.90
7934;DHT22;4012;48.896;9.192;2023-04-08T14:13:24;13.80;99.90
7934;DHT22;4012;48.896;9.192;2023-04-08T14:15:50;13.10;99.90
7934;DHT22;4012;48.896;9.192;2023-04-08T14:18:18;12.90;99.90
7934;DHT22;4012;48.896;9.192;2023-04-08T14:20:43;12.40;99.90
7934;DHT22;4012;48.896;9.192;2023-04-08T14:23:09;12.50;99.90
7934;DHT22;4012;48.896;9.192;2023-04-08T14:25:35;12.60;99.90
7934;DHT22;4012;48.896;9.192;2023-04-08T14:28:01;12.50;99.90
7934;DHT22;4012;48.896;9.192;2023-04-08T14:30:27;12.40;99.90
7934;DHT22;4012;48.896;9.192;2023-04-08T14:32:53;12.30;99.90
7934;DHT22;4012;48.896;9.192;2023-04-08T14:35:18;12.20;99.90
7934;DHT22;4012;48.896;9.192;2023-04-08T14:37:44;12.40;99.90
7934;DHT22;4012;48.896;9.192;2023-04-08T14:40:10;12.60;99.90
7934;DHT22;4012;48.896;9.192;2023-04-08T14:42:36;12.80;99.90
7934;DHT22;4012;48.896;9.192;2023-04-08T14:45:01;12.90;99.90
7934;DHT22;4012;48.896;9.192;2023-04-08T14:47:27;12.50;99.90
7934;DHT22;4012;48.896;9.192;2023-04-08T14:49:53;12.30;99.90
7934;DHT22;4012;48.896;9.192;2023-04-08T14:52:19;12.40;99.90
7934;DHT22;4012;48.896;9.192;2023-04-08T14:54:44;12.40;99.90
7934;DHT22;4012;48.896;9.192;2023-04-08T14:57:11;12.50;99.90
7934;DHT22;4012;48.896;9.192;2023-04-08T14:59:37;12.60;99.90
7934;DHT22;4012;48.896;9.192;2023-04-08T15:02:03;12.60;99.90
7934;DHT22;4012;48.896;9.192;2023-04-08T15:04:29;12.60;99.90
7934;DHT22;4012;48.896;9.192;2023-04-08T15:06:54;12.20;99.90
7934;DHT22;4012;48.896;9.192;2023-04-08T15:09:21;12.00;99.90
7934;DHT22;4012;48.896;9.192;2023-04-08T15:11:47;11.80;99.90
7934;DHT22;4012;48.896;9.192;2023-04-08T15:14:12;11.60;99.90
7934;DHT22;4012;48.896;9.192;2023-04-08T15:16:38;11.40;99.90
7934;DHT22;4012;48.896;9.192;2023-04-08T15:19:04;11.40;99.90
7934;DHT22;4012;48.896;9.192;2023-04-08T15:21:30;11.40;99.90
7934;DHT22;4012;48.896;9.192;2023-04-08T15:23:56;11.50;99.90
7934;DHT22;4012;48.896;9.192;2023-04-08T15:26:21;11.80;99.90
7934;DHT22;4012;48.896;9.192;2023-04-08T15:28:47;11.90;99.90
7934;DHT22;4012;48.896;9.192;2023-04-08T15:31:13;11.90;99.90
7934;DHT22;4012;48.896;9.192;2023-04-08T15:33:39;11.80;99.90
7934;DHT22;4012;48.896;9.192;2023-04-08T15:36:07;11.50;99.90
7934;DHT22;4012;48.896;9.192;2023-04-08T15:38:33;11.40;99.90
7934;DHT22;4012;48.896;9.192;2023-04-08T15:40:58;11.50;99.90
7934;DHT22;4012;48.896;9.192;2023-04-08T15:43:24;11.60;99.90
7934;DHT22;4012;48.896;9.192;2023-04-08T15:45:50;11.60;99.90
7934;DHT22;4012;48.896;9.192;2023-04-08T15:48:15;11.60;99.90
7934;DHT22;4012;48.896;9.192;2023-04-08T15:50:41;11.50;99.90
7934;DHT22;4012;48.896;9.192;2023-04-08T15:53:06;11.60;99.90
7934;DHT22;4012;48.896;9.192;2023-04-08T15:55:39;11.80;99.90
7934;DHT22;4012;48.896;9.192;2023-04-08T15:58:05;11.80;99.90
7934;DHT22;4012;48.896;9.192;2023-04-08T16:00:31;11.70;99.90
7934;DHT22;4012;48.896;9.192;2023-04-08T16:02:57;11.70;99.90
7934;DHT22;4012;48.896;9.192;2023-04-08T16:05:22;11.70;99.90
7934;DHT22;4012;48.896;9.192;2023-04-08T16:07:48;11.70;99.90
7934;DHT22;4012;48.896;9.192;2023-04-08T16:10:14;11.70;99.90
7934;DHT22;4012;48.896;9.192;2023-04-08T16:12:39;11.60;99.90
7934;DHT22;4012;48.896;9.192;2023-04-08T16:15:05;11.60;99.90
7934;DHT22;4012;48.896;9.192;2023-04-08T16:17:31;11.50;99.90
7934;DHT22;4012;48.896;9.192;2023-04-08T16:19:57;11.50;99.90
7934;DHT22;4012;48.896;9.192;2023-04-08T16:22:22;11.50;99.90
7934;DHT22;4012;48.896;9.192;2023-04-08T16:24:48;11.40;99.90